METAR Data
IDs: Format: Raw Decoded Include TAF

Data at: 2141 UTC 26 May 2019

METAR for:KLHQ (Lancaster/Fairfield, OH, US)
Text:KLHQ 262053Z AUTO 34006KT 10SM FEW085 29/19 A2997 RMK AO2 LTG DSNT S AND SW SLP142 T02890194 58019
Temperature: 28.9°C ( 84°F)
Dewpoint: 19.4°C ( 67°F) [RH = 57%]
Pressure (altimeter):29.97 inches Hg (1015.0 mb) [Sea level pressure: 1014.2 mb]
Winds:from the NNW (340 degrees) at 7 MPH (6 knots; 3.1 m/s)
Visibility:10 or more sm (16+ km)
Ceiling:at least 12,000 feet AGL
Clouds: few clouds at 8500 feet AGL
QC Flag:automated observation with no human augmentation